createdAt,value
2022-09-24T00:01:38.574Z,6.18
2022-09-24T00:04:08.626Z,4.90
2022-09-24T00:06:40.968Z,6.40
2022-09-24T00:09:08.761Z,4.70
2022-09-24T00:11:35.665Z,6.60
2022-09-24T00:14:02.829Z,5.80
2022-09-24T00:16:32.962Z,5.88
2022-09-24T00:19:00.628Z,5.63
2022-09-24T00:21:30.059Z,6.05
2022-09-24T00:24:02.353Z,5.35
2022-09-24T00:26:47.847Z,5.07
2022-09-24T00:29:21.436Z,5.72
2022-09-24T00:31:49.974Z,6.85
2022-09-24T00:34:17.992Z,6.05
2022-09-24T00:36:46.411Z,6.28
2022-09-24T00:39:13.747Z,5.97
2022-09-24T00:41:47.097Z,4.82
2022-09-24T00:44:45.287Z,6.05
2022-09-24T00:47:19.255Z,5.00
2022-09-24T00:49:48.333Z,5.60
2022-09-24T00:52:16.668Z,4.95
2022-09-24T00:54:45.418Z,5.50
2022-09-24T00:57:13.199Z,5.25
2022-09-24T00:59:42.267Z,6.32
2022-09-24T01:02:09.542Z,5.82
2022-09-24T01:04:36.997Z,6.25
2022-09-24T01:07:04.142Z,6.60
2022-09-24T01:09:31.147Z,5.03
2022-09-24T01:12:20.626Z,5.05
2022-09-24T01:15:30.645Z,5.18
2022-09-24T01:18:03.238Z,5.07
2022-09-24T01:20:57.555Z,5.25
2022-09-24T01:23:33.471Z,5.40
2022-09-24T01:26:28.869Z,5.47
2022-09-24T01:29:24.158Z,5.43
2022-09-24T01:32:14.655Z,4.88
2022-09-24T01:34:47.866Z,4.95
2022-09-24T01:37:17.422Z,5.38
2022-09-24T01:39:46.938Z,5.05
2022-09-24T01:42:14.819Z,5.85
2022-09-24T01:44:44.423Z,5.40
2022-09-24T01:47:18.630Z,5.60
2022-09-24T01:49:46.040Z,5.25
2022-09-24T01:52:18.762Z,4.55
2022-09-24T01:54:51.923Z,5.20
2022-09-24T01:57:23.764Z,5.70
2022-09-24T02:00:05.396Z,4.90
2022-09-24T02:03:10.471Z,4.72
2022-09-24T02:05:50.534Z,4.65
2022-09-24T02:08:22.319Z,5.10
2022-09-24T02:10:57.946Z,4.15
2022-09-24T02:13:28.384Z,5.55
2022-09-24T02:16:00.131Z,4.63
2022-09-24T02:18:33.601Z,4.78
2022-09-24T02:21:03.903Z,4.78
2022-09-24T02:23:33.273Z,5.55
2022-09-24T02:26:03.296Z,4.60
2022-09-24T02:28:32.337Z,5.22
2022-09-24T02:31:27.270Z,4.43
2022-09-24T02:34:13.689Z,4.55
2022-09-24T02:36:42.110Z,5.95
2022-09-24T02:39:08.837Z,4.38
2022-09-24T02:41:36.884Z,5.22
2022-09-24T02:44:03.686Z,4.35
2022-09-24T02:46:30.488Z,3.80
2022-09-24T02:48:57.699Z,4.82
2022-09-24T02:51:24.604Z,4.32
2022-09-24T02:53:51.442Z,4.25
2022-09-24T02:56:18.580Z,5.32
2022-09-24T02:58:45.266Z,4.78
2022-09-24T03:01:12.192Z,4.80
2022-09-24T03:03:38.929Z,4.88
2022-09-24T03:06:06.561Z,5.10
2022-09-24T03:08:33.559Z,4.15
2022-09-24T03:11:00.943Z,4.53
2022-09-24T03:13:27.726Z,4.80
2022-09-24T03:15:54.592Z,4.20
2022-09-24T03:18:21.506Z,4.07
2022-09-24T03:20:59.624Z,5.15
2022-09-24T03:23:26.855Z,3.97
2022-09-24T03:25:54.500Z,4.90
2022-09-24T03:28:21.973Z,4.47
2022-09-24T03:31:00.861Z,4.90
2022-09-24T03:33:33.832Z,4.15
2022-09-24T03:36:01.963Z,4.30
2022-09-24T03:38:29.828Z,4.68
2022-09-24T03:41:00.225Z,4.63
2022-09-24T03:43:27.130Z,4.13
2022-09-24T03:45:54.322Z,4.68
2022-09-24T03:48:22.724Z,3.88
2022-09-24T03:50:50.322Z,4.60
2022-09-24T03:53:18.282Z,3.83
2022-09-24T03:55:47.265Z,4.68
2022-09-24T03:58:15.700Z,4.82
2022-09-24T04:00:42.994Z,4.13
2022-09-24T04:03:10.559Z,4.60
2022-09-24T04:05:38.159Z,4.68
2022-09-24T04:08:06.266Z,4.10
2022-09-24T04:10:33.168Z,4.18
2022-09-24T04:13:00.317Z,4.50
2022-09-24T04:15:27.512Z,3.85
2022-09-24T04:17:57.197Z,4.70
2022-09-24T04:20:26.639Z,4.45
2022-09-24T04:22:56.137Z,4.43
2022-09-24T04:25:24.622Z,4.65
2022-09-24T04:27:56.898Z,4.50
2022-09-24T04:30:25.549Z,4.18
2022-09-24T04:32:52.862Z,4.60
2022-09-24T04:35:22.032Z,4.10
2022-09-24T04:37:49.272Z,3.97
2022-09-24T04:40:16.470Z,3.28
2022-09-24T04:42:47.346Z,4.22
2022-09-24T04:45:20.085Z,3.70
2022-09-24T04:47:52.616Z,3.53
2022-09-24T04:50:20.429Z,3.95
2022-09-24T04:52:53.243Z,3.65
2022-09-24T04:55:23.339Z,3.83
2022-09-24T04:57:51.313Z,4.25
2022-09-24T05:00:20.723Z,3.88
2022-09-24T05:02:48.585Z,3.20
2022-09-24T05:05:15.684Z,3.63
2022-09-24T05:07:44.596Z,4.25
2022-09-24T05:10:11.955Z,3.50
2022-09-24T05:12:40.966Z,3.95
2022-09-24T05:15:08.183Z,4.30
2022-09-24T05:17:39.045Z,4.03
2022-09-24T05:20:07.371Z,3.90
2022-09-24T05:22:34.153Z,3.83
2022-09-24T05:25:00.864Z,3.85
2022-09-24T05:27:27.720Z,4.00
2022-09-24T05:29:55.281Z,4.00
2022-09-24T05:32:22.080Z,3.95
2022-09-24T05:34:50.829Z,3.70
2022-09-24T05:37:18.458Z,3.50
2022-09-24T05:39:45.421Z,3.80
2022-09-24T05:42:15.529Z,3.78
2022-09-24T05:44:49.809Z,3.97
2022-09-24T05:49:45.560Z,3.85
2022-09-24T05:52:12.996Z,4.00
2022-09-24T05:54:39.789Z,4.55
2022-09-24T05:57:06.624Z,3.90
2022-09-24T05:59:33.446Z,4.40
2022-09-24T06:02:00.308Z,3.83
2022-09-24T06:04:27.927Z,4.00
2022-09-24T06:06:54.735Z,3.90
2022-09-24T06:09:21.698Z,3.95
2022-09-24T06:11:51.067Z,4.38
2022-09-24T06:14:17.916Z,4.10
2022-09-24T06:16:44.811Z,3.95
2022-09-24T06:19:12.062Z,4.75
2022-09-24T06:21:38.844Z,4.30
2022-09-24T06:24:05.802Z,4.72
2022-09-24T06:26:33.231Z,4.43
2022-09-24T06:29:05.002Z,4.40
2022-09-24T06:31:32.778Z,4.57
2022-09-24T06:34:00.442Z,3.70
2022-09-24T06:36:27.182Z,3.88
2022-09-24T06:38:53.908Z,3.70
2022-09-24T06:41:20.790Z,3.35
2022-09-24T06:43:47.585Z,3.28
2022-09-24T06:46:15.749Z,3.33
2022-09-24T06:48:42.869Z,3.60
2022-09-24T06:51:09.689Z,3.00
2022-09-24T06:53:36.737Z,3.38
2022-09-24T06:56:04.355Z,3.30
2022-09-24T06:58:31.214Z,3.60
2022-09-24T07:01:01.512Z,3.53
2022-09-24T07:03:33.551Z,3.53
2022-09-24T07:06:02.784Z,3.50
2022-09-24T07:08:30.070Z,3.25
2022-09-24T07:10:57.071Z,3.08
2022-09-24T07:13:23.980Z,3.65
2022-09-24T07:15:52.772Z,3.30
2022-09-24T07:18:20.561Z,3.40
2022-09-24T07:20:52.851Z,3.65
2022-09-24T07:23:20.072Z,3.22
2022-09-24T07:25:48.370Z,3.53
2022-09-24T07:28:21.637Z,3.35
2022-09-24T07:30:57.423Z,3.28
2022-09-24T07:33:24.264Z,4.00
2022-09-24T07:35:51.132Z,3.42
2022-09-24T07:38:17.969Z,3.80
2022-09-24T07:40:44.896Z,3.20
2022-09-24T07:43:13.987Z,4.28
2022-09-24T07:45:42.520Z,3.53
2022-09-24T07:48:10.621Z,3.78
2022-09-24T07:50:41.905Z,4.45
2022-09-24T07:53:12.685Z,4.50
2022-09-24T07:55:40.890Z,4.35
2022-09-24T07:58:15.054Z,3.88
2022-09-24T08:00:42.247Z,4.60
2022-09-24T08:03:09.072Z,4.03
2022-09-24T08:05:35.856Z,3.90
2022-09-24T08:08:02.730Z,3.97
2022-09-24T08:10:29.528Z,4.03
2022-09-24T08:12:57.179Z,3.83
2022-09-24T08:15:24.222Z,3.65
2022-09-24T08:17:51.258Z,3.72
2022-09-24T08:20:19.316Z,3.90
2022-09-24T08:22:46.087Z,3.58
2022-09-24T08:25:12.764Z,3.28
2022-09-24T08:27:39.619Z,3.70
2022-09-24T08:30:07.240Z,3.70
2022-09-24T08:32:34.085Z,3.58
2022-09-24T08:35:00.887Z,3.70
2022-09-24T08:37:29.013Z,3.83
2022-09-24T08:39:55.944Z,4.05
2022-09-24T08:42:44.322Z,3.33
2022-09-24T08:45:29.975Z,4.22
2022-09-24T08:48:02.231Z,3.70
2022-09-24T08:50:31.642Z,4.10
2022-09-24T08:53:32.422Z,4.10
2022-09-24T08:56:00.672Z,4.05
2022-09-24T08:58:46.037Z,4.03
2022-09-24T09:01:12.864Z,4.43
2022-09-24T09:03:40.148Z,4.03
2022-09-24T09:06:09.545Z,4.30
2022-09-24T09:09:08.118Z,4.32
2022-09-24T09:11:37.037Z,4.72
2022-09-24T09:14:18.958Z,5.05
2022-09-24T09:17:12.534Z,4.65
2022-09-24T09:19:41.516Z,5.03
2022-09-24T09:22:15.058Z,4.20
2022-09-24T09:24:50.593Z,4.68
2022-09-24T09:27:19.077Z,4.35
2022-09-24T09:29:56.128Z,4.30
2022-09-24T09:32:28.697Z,4.43
2022-09-24T09:34:59.079Z,4.45
2022-09-24T09:37:58.338Z,4.15
2022-09-24T09:40:32.235Z,3.78
2022-09-24T09:43:02.844Z,3.80
2022-09-24T09:45:44.583Z,4.10
2022-09-24T09:48:14.157Z,3.55
2022-09-24T09:50:46.215Z,3.50
2022-09-24T09:53:24.678Z,3.35
2022-09-24T09:55:57.432Z,3.22
2022-09-24T09:58:31.165Z,3.38
2022-09-24T10:01:31.809Z,3.20
2022-09-24T10:04:03.344Z,3.35
2022-09-24T10:06:35.499Z,3.08
2022-09-24T10:09:20.111Z,3.28
2022-09-24T10:11:47.657Z,3.42
2022-09-24T10:14:22.002Z,3.28
2022-09-24T10:16:55.102Z,3.75
2022-09-24T10:19:26.185Z,3.20
2022-09-24T10:21:57.653Z,3.50
2022-09-24T10:24:27.486Z,3.80
2022-09-24T10:26:55.504Z,3.83
2022-09-24T10:29:52.580Z,3.70
2022-09-24T10:32:31.807Z,3.95
2022-09-24T10:35:09.141Z,3.85
2022-09-24T10:37:36.974Z,3.65
2022-09-24T10:40:18.287Z,3.70
2022-09-24T10:42:56.091Z,3.53
2022-09-24T10:45:30.818Z,3.83
2022-09-24T10:48:24.464Z,3.90
2022-09-24T10:51:15.413Z,3.90
2022-09-24T10:54:00.570Z,3.60
2022-09-24T10:56:45.970Z,3.88
2022-09-24T10:59:23.437Z,4.27
2022-09-24T11:01:59.974Z,4.15
2022-09-24T11:04:46.719Z,4.30
2022-09-24T11:07:35.211Z,3.83
2022-09-24T11:10:18.078Z,3.92
2022-09-24T11:12:48.916Z,4.55
2022-09-24T11:15:44.396Z,4.65
2022-09-24T11:18:50.004Z,4.68
2022-09-24T11:21:32.141Z,4.60
2022-09-24T11:24:28.165Z,4.35
2022-09-24T11:27:31.206Z,4.47
2022-09-24T11:30:16.685Z,4.30
2022-09-24T11:33:23.193Z,4.93
2022-09-24T11:36:14.207Z,4.60
2022-09-24T11:39:13.882Z,4.55
2022-09-24T11:41:59.657Z,4.85
2022-09-24T11:45:08.802Z,4.72
2022-09-24T11:48:06.148Z,4.93
2022-09-24T11:51:13.145Z,5.53
2022-09-24T11:54:20.951Z,4.90
2022-09-24T11:56:59.686Z,5.25
2022-09-24T11:59:40.321Z,4.78
2022-09-24T12:02:29.524Z,5.28
2022-09-24T12:05:30.297Z,5.07
2022-09-24T12:07:59.390Z,4.80
2022-09-24T12:10:44.154Z,4.95
2022-09-24T12:13:23.164Z,5.28
2022-09-24T12:15:56.814Z,5.22
2022-09-24T12:18:39.225Z,4.63
2022-09-24T12:21:12.752Z,5.10
2022-09-24T12:23:44.727Z,4.78
2022-09-24T12:26:17.474Z,5.30
2022-09-24T12:29:40.738Z,5.28
2022-09-24T12:32:56.908Z,5.22
2022-09-24T12:35:46.628Z,5.25
2022-09-24T12:38:47.481Z,5.35
2022-09-24T12:41:27.919Z,5.63
2022-09-24T12:44:11.541Z,5.47
2022-09-24T12:46:43.740Z,5.43
2022-09-24T12:49:25.610Z,5.50
2022-09-24T12:52:05.475Z,4.72
2022-09-24T12:54:38.349Z,5.43
2022-09-24T12:57:25.325Z,5.32
2022-09-24T12:59:59.192Z,5.00
2022-09-24T13:02:43.360Z,5.30
2022-09-24T13:05:28.892Z,4.53
2022-09-24T13:08:03.941Z,4.93
2022-09-24T13:10:36.891Z,4.70
2022-09-24T13:13:22.914Z,5.68
2022-09-24T13:16:04.670Z,5.03
2022-09-24T13:18:37.276Z,4.72
2022-09-24T13:21:08.511Z,5.10
2022-09-24T13:23:38.962Z,4.90
2022-09-24T13:26:09.463Z,4.57
2022-09-24T13:28:51.635Z,4.70
2022-09-24T13:31:22.227Z,5.22
2022-09-24T13:34:10.492Z,4.40
2022-09-24T13:36:44.580Z,4.13
2022-09-24T13:39:44.272Z,3.85
2022-09-24T13:42:49.089Z,4.30
2022-09-24T13:45:23.040Z,4.32
2022-09-24T13:48:04.781Z,4.80
2022-09-24T13:50:38.021Z,4.45
2022-09-24T13:53:22.781Z,4.72
2022-09-24T13:55:57.692Z,4.97
2022-09-24T13:58:35.163Z,4.80
2022-09-24T14:01:13.128Z,4.70
2022-09-24T14:03:42.316Z,4.70
2022-09-24T14:06:13.550Z,4.35
2022-09-24T14:08:46.837Z,4.60
2022-09-24T14:11:24.727Z,4.85
2022-09-24T14:13:52.220Z,4.75
2022-09-24T14:16:21.724Z,5.18
2022-09-24T14:18:49.184Z,4.88
2022-09-24T14:21:24.581Z,5.40
2022-09-24T14:23:57.143Z,5.30
2022-09-24T14:26:29.129Z,4.78
2022-09-24T14:28:58.295Z,5.20
2022-09-24T14:31:25.410Z,5.50
2022-09-24T14:33:52.639Z,5.20
2022-09-24T14:36:27.614Z,5.28
2022-09-24T14:39:01.763Z,5.38
2022-09-24T14:41:32.680Z,4.60
2022-09-24T14:44:04.198Z,6.20
2022-09-24T14:46:49.973Z,5.03
2022-09-24T14:49:17.694Z,6.00
2022-09-24T14:51:53.178Z,8.85
2022-09-24T14:54:27.543Z,14.40
2022-09-24T14:56:55.155Z,9.55
2022-09-24T14:59:32.012Z,13.85
2022-09-24T15:02:15.781Z,6.15
2022-09-24T15:04:48.834Z,5.82
2022-09-24T15:07:24.075Z,6.32
2022-09-24T15:09:53.228Z,6.15
2022-09-24T15:12:32.281Z,5.70
2022-09-24T15:15:03.190Z,5.43
2022-09-24T15:17:35.385Z,7.07
2022-09-24T15:20:04.107Z,6.18
2022-09-24T15:22:31.802Z,5.97
2022-09-24T15:25:02.013Z,6.25
2022-09-24T15:27:32.225Z,5.65
2022-09-24T15:30:01.753Z,6.07
2022-09-24T15:32:35.169Z,6.68
2022-09-24T15:35:07.613Z,7.43
2022-09-24T15:37:38.394Z,7.10
2022-09-24T15:40:10.193Z,6.80
2022-09-24T15:42:39.201Z,7.00
2022-09-24T15:45:15.952Z,7.30
2022-09-24T15:47:43.001Z,7.15
2022-09-24T15:50:11.662Z,8.02
2022-09-24T15:52:47.486Z,8.63
2022-09-24T15:55:18.286Z,8.75
2022-09-24T15:57:47.087Z,8.65
2022-09-24T16:00:25.583Z,9.48
2022-09-24T16:02:57.157Z,9.25
2022-09-24T16:05:25.346Z,9.75
2022-09-24T16:07:54.806Z,10.18
2022-09-24T16:10:21.729Z,9.55
2022-09-24T16:12:48.777Z,11.43
2022-09-24T16:15:17.425Z,11.77
2022-09-24T16:17:45.097Z,11.30
2022-09-24T16:20:12.295Z,14.30
2022-09-24T16:22:39.063Z,14.65
2022-09-24T16:25:06.487Z,15.13
2022-09-24T16:27:36.036Z,17.23
2022-09-24T16:30:04.254Z,17.45
2022-09-24T16:32:31.016Z,17.30
2022-09-24T16:34:58.293Z,17.60
2022-09-24T16:37:26.030Z,15.88
2022-09-24T16:39:53.692Z,17.50
2022-09-24T16:42:21.074Z,19.88
2022-09-24T16:44:48.931Z,22.52
2022-09-24T16:47:17.820Z,21.02
2022-09-24T16:49:49.864Z,18.85
2022-09-24T16:52:17.533Z,20.73
2022-09-24T16:54:45.347Z,17.92
2022-09-24T16:57:13.371Z,18.42
2022-09-24T16:59:40.724Z,19.73
2022-09-24T17:02:09.391Z,21.70
2022-09-24T17:04:37.482Z,21.40
2022-09-24T17:07:04.873Z,23.00
2022-09-24T17:09:50.956Z,20.17
2022-09-24T17:12:18.178Z,23.00
2022-09-24T17:14:45.639Z,23.67
2022-09-24T17:17:14.638Z,19.73
2022-09-24T17:19:41.992Z,20.60
2022-09-24T17:22:09.346Z,22.73
2022-09-24T17:24:40.217Z,24.25
2022-09-24T17:27:08.259Z,25.02
2022-09-24T17:29:35.527Z,24.92
2022-09-24T17:32:03.165Z,25.02
2022-09-24T17:34:30.623Z,22.45
2022-09-24T17:36:59.940Z,21.98
2022-09-24T17:39:27.995Z,18.50
2022-09-24T17:41:55.149Z,25.95
2022-09-24T17:44:22.702Z,28.20
2022-09-24T17:46:49.769Z,27.17
2022-09-24T17:49:16.680Z,28.40
2022-09-24T17:51:45.158Z,28.10
2022-09-24T17:54:14.426Z,24.40
2022-09-24T17:56:42.107Z,27.30
2022-09-24T17:59:10.840Z,29.90
2022-09-24T18:01:39.672Z,26.52
2022-09-24T18:04:10.458Z,31.88
2022-09-24T18:06:39.334Z,29.85
2022-09-24T18:09:06.655Z,30.23
2022-09-24T18:11:39.186Z,29.73
2022-09-24T18:14:05.991Z,32.85
2022-09-24T18:16:33.840Z,31.88
2022-09-24T18:19:02.298Z,25.23
2022-09-24T18:21:30.036Z,25.13
2022-09-24T18:23:59.353Z,25.75
2022-09-24T18:26:29.455Z,23.02
2022-09-24T18:28:58.512Z,28.00
2022-09-24T18:31:28.194Z,25.05
2022-09-24T18:33:57.209Z,29.85
2022-09-24T18:36:27.981Z,28.05
2022-09-24T18:38:56.411Z,26.75
2022-09-24T18:41:28.419Z,24.55
2022-09-24T18:43:58.732Z,32.88
2022-09-24T18:46:28.530Z,34.75
2022-09-24T18:48:57.067Z,35.33
2022-09-24T18:51:26.143Z,31.85
2022-09-24T18:54:04.189Z,29.73
2022-09-24T18:56:31.956Z,32.28
2022-09-24T18:59:09.348Z,29.23
2022-09-24T19:01:38.264Z,28.17
2022-09-24T19:04:06.243Z,27.35
2022-09-24T19:06:35.413Z,29.90
2022-09-24T19:09:04.636Z,30.90
2022-09-24T19:11:32.561Z,29.10
2022-09-24T19:14:00.527Z,38.90
2022-09-24T19:16:34.501Z,34.58
2022-09-24T19:19:27.977Z,37.03
2022-09-24T19:21:59.714Z,39.75
2022-09-24T19:27:23.707Z,38.95
2022-09-24T19:30:01.449Z,39.45
2022-09-24T19:32:32.166Z,36.38
2022-09-24T19:35:00.463Z,36.42
2022-09-24T19:37:29.647Z,32.33
2022-09-24T19:40:05.626Z,28.80
2022-09-24T19:42:42.703Z,35.25
2022-09-24T19:45:26.544Z,37.90
2022-09-24T19:47:55.030Z,29.85
2022-09-24T19:50:25.489Z,30.85
2022-09-24T19:52:59.052Z,32.55
2022-09-24T19:55:30.542Z,29.98
2022-09-24T19:57:58.824Z,30.10
2022-09-24T20:00:29.450Z,36.08
2022-09-24T20:03:01.105Z,35.47
2022-09-24T20:05:28.959Z,36.05
2022-09-24T20:07:56.944Z,37.50
2022-09-24T20:10:24.935Z,35.70
2022-09-24T20:12:54.729Z,30.40
2022-09-24T20:15:25.102Z,33.58
2022-09-24T20:17:53.895Z,28.95
2022-09-24T20:20:21.654Z,35.33
2022-09-24T20:22:50.441Z,33.95
2022-09-24T20:25:18.463Z,36.50
2022-09-24T20:27:52.653Z,34.20
2022-09-24T20:30:24.366Z,36.13
2022-09-24T20:32:51.743Z,30.75
2022-09-24T20:35:19.182Z,32.47
2022-09-24T20:37:48.500Z,33.35
2022-09-24T20:40:16.118Z,33.75
2022-09-24T20:42:46.080Z,30.60
2022-09-24T20:45:13.744Z,33.88
2022-09-24T20:47:42.612Z,32.10
2022-09-24T20:50:13.050Z,33.95
2022-09-24T20:52:50.031Z,29.10
2022-09-24T20:55:17.794Z,33.65
2022-09-24T20:57:45.322Z,29.70
2022-09-24T21:00:15.254Z,31.02
2022-09-24T21:02:49.677Z,27.95
2022-09-24T21:05:44.183Z,32.53
2022-09-24T21:08:17.075Z,30.95
2022-09-24T21:10:46.719Z,33.67
2022-09-24T21:13:13.791Z,27.42
2022-09-24T21:15:40.612Z,31.98
2022-09-24T21:18:22.171Z,32.75
2022-09-24T21:20:49.826Z,26.33
2022-09-24T21:23:16.516Z,27.75
2022-09-24T21:25:54.515Z,25.83
2022-09-24T21:28:21.708Z,29.42
2022-09-24T21:31:03.406Z,27.77
2022-09-24T21:33:31.192Z,27.35
2022-09-24T21:36:01.139Z,26.33
2022-09-24T21:38:28.223Z,25.50
2022-09-24T21:41:02.798Z,22.25
2022-09-24T21:43:34.577Z,22.50
2022-09-24T21:46:06.672Z,19.20
2022-09-24T21:48:34.229Z,16.45
2022-09-24T21:51:09.435Z,16.08
2022-09-24T21:53:37.843Z,15.02
2022-09-24T21:56:05.846Z,17.23
2022-09-24T21:58:32.991Z,15.52
2022-09-24T22:01:04.327Z,15.77
2022-09-24T22:03:47.918Z,14.52
2022-09-24T22:06:38.924Z,14.70
2022-09-24T22:09:07.154Z,13.57
2022-09-24T22:11:35.023Z,12.95
2022-09-24T22:14:02.827Z,12.95
2022-09-24T22:16:31.895Z,15.05
2022-09-24T22:19:00.417Z,14.63
2022-09-24T22:21:28.097Z,13.20
2022-09-24T22:23:55.835Z,12.65
2022-09-24T22:26:22.848Z,10.18
2022-09-24T22:28:49.606Z,11.50
2022-09-24T22:31:17.691Z,11.15
2022-09-24T22:34:03.850Z,11.77
2022-09-24T22:36:32.676Z,11.10
2022-09-24T22:39:01.255Z,10.15
2022-09-24T22:41:30.066Z,10.68
2022-09-24T22:43:57.663Z,12.50
2022-09-24T22:46:28.225Z,10.20
2022-09-24T22:48:56.324Z,10.45
2022-09-24T22:51:25.003Z,11.65
2022-09-24T22:53:53.408Z,12.80
2022-09-24T22:56:22.874Z,12.25
2022-09-24T22:58:57.950Z,13.73
2022-09-24T23:01:27.339Z,12.15
2022-09-24T23:03:55.853Z,11.38
2022-09-24T23:06:23.667Z,8.88
2022-09-24T23:08:53.025Z,9.27
2022-09-24T23:11:29.125Z,8.85
2022-09-24T23:14:01.704Z,8.75
2022-09-24T23:16:34.301Z,8.98
2022-09-24T23:19:04.303Z,8.40
2022-09-24T23:21:32.571Z,11.98
2022-09-24T23:24:13.197Z,10.77
2022-09-24T23:26:40.124Z,12.27
2022-09-24T23:29:07.082Z,11.82
2022-09-24T23:31:35.823Z,12.32
2022-09-24T23:34:04.039Z,11.18
2022-09-24T23:36:32.407Z,8.88
2022-09-24T23:39:00.344Z,9.00
2022-09-24T23:41:28.913Z,7.18
2022-09-24T23:43:56.005Z,10.57
2022-09-24T23:46:22.985Z,8.52
2022-09-24T23:48:49.917Z,10.52
2022-09-24T23:51:16.725Z,7.55
2022-09-24T23:53:43.526Z,8.23
2022-09-24T23:56:12.182Z,7.60
2022-09-24T23:58:39.336Z,10.68
